sensor_id;sensor_type;location;lat;lon;timestamp;pressure;altitude;pressure_sealevel;temperature;humidity
58785;BME280;44557;51.862;19.378;2023-09-19T00:01:58;98432.48;;;20.62;70.55
58785;BME280;44557;51.862;19.378;2023-09-19T00:04:01;98423.89;;;20.63;70.74
58785;BME280;44557;51.862;19.378;2023-09-19T00:06:04;98419.59;;;20.69;70.63
58785;BME280;44557;51.862;19.378;2023-09-19T00:08:06;98421.69;;;20.68;70.61
58785;BME280;44557;51.862;19.378;2023-09-19T00:10:09;98419.75;;;20.66;70.62
58785;BME280;44557;51.862;19.378;2023-09-19T00:12:11;98421.80;;;20.74;70.49
58785;BME280;44557;51.862;19.378;2023-09-19T00:14:15;98420.52;;;20.58;70.87
58785;BME280;44557;51.862;19.378;2023-09-19T00:16:17;98423.40;;;20.57;71.05
58785;BME280;44557;51.862;19.378;2023-09-19T00:18:20;98421.86;;;20.65;70.74
58785;BME280;44557;51.862;19.378;2023-09-19T00:20:23;98425.02;;;20.63;70.81
58785;BME280;44557;51.862;19.378;2023-09-19T00:22:26;98418.28;;;20.61;71.05
58785;BME280;44557;51.862;19.378;2023-09-19T00:24:28;98417.39;;;20.65;70.92
58785;BME280;44557;51.862;19.378;2023-09-19T00:26:32;98418.36;;;20.74;70.50
58785;BME280;44557;51.862;19.378;2023-09-19T00:28:34;98415.39;;;20.67;70.65
58785;BME280;44557;51.862;19.378;2023-09-19T00:30:37;98415.83;;;20.59;70.97
58785;BME280;44557;51.862;19.378;2023-09-19T00:32:41;98418.10;;;20.58;71.19
58785;BME280;44557;51.862;19.378;2023-09-19T00:34:44;98416.85;;;20.50;71.40
58785;BME280;44557;51.862;19.378;2023-09-19T00:36:47;98413.48;;;20.51;71.43
58785;BME280;44557;51.862;19.378;2023-09-19T00:38:49;98408.77;;;20.55;71.34
58785;BME280;44557;51.862;19.378;2023-09-19T00:40:51;98416.08;;;20.52;71.41
58785;BME280;44557;51.862;19.378;2023-09-19T00:42:57;98412.45;;;20.50;71.29
58785;BME280;44557;51.862;19.378;2023-09-19T00:45:01;98409.18;;;20.46;71.69
58785;BME280;44557;51.862;19.378;2023-09-19T00:47:05;98406.71;;;20.57;71.12
58785;BME280;44557;51.862;19.378;2023-09-19T00:49:08;98401.09;;;20.55;71.23
58785;BME280;44557;51.862;19.378;2023-09-19T00:51:12;98397.61;;;20.56;71.15
58785;BME280;44557;51.862;19.378;2023-09-19T00:53:34;98395.95;;;20.59;71.21
58785;BME280;44557;51.862;19.378;2023-09-19T00:55:36;98397.21;;;20.59;71.15
58785;BME280;44557;51.862;19.378;2023-09-19T00:57:40;98395.79;;;20.52;71.49
58785;BME280;44557;51.862;19.378;2023-09-19T00:59:43;98393.76;;;20.50;71.64
58785;BME280;44557;51.862;19.378;2023-09-19T01:01:46;98393.98;;;20.54;71.51
58785;BME280;44557;51.862;19.378;2023-09-19T01:03:50;98394.80;;;20.56;71.23
58785;BME280;44557;51.862;19.378;2023-09-19T01:05:52;98393.77;;;20.66;70.88
58785;BME280;44557;51.862;19.378;2023-09-19T01:07:54;98391.12;;;20.70;70.64
58785;BME280;44557;51.862;19.378;2023-09-19T01:09:57;98392.58;;;20.62;70.87
58785;BME280;44557;51.862;19.378;2023-09-19T01:12:04;98393.49;;;20.64;70.82
58785;BME280;44557;51.862;19.378;2023-09-19T01:14:33;98391.95;;;20.61;70.71
58785;BME280;44557;51.862;19.378;2023-09-19T01:16:50;98383.80;;;20.58;70.95
58785;BME280;44557;51.862;19.378;2023-09-19T01:21:45;98386.97;;;20.75;70.13
58785;BME280;44557;51.862;19.378;2023-09-19T01:26:07;98387.17;;;20.90;69.58
58785;BME280;44557;51.862;19.378;2023-09-19T01:30:32;98394.02;;;20.87;70.05
58785;BME280;44557;51.862;19.378;2023-09-19T01:32:38;98388.52;;;20.99;69.67
58785;BME280;44557;51.862;19.378;2023-09-19T01:34:46;98384.59;;;20.91;69.86
58785;BME280;44557;51.862;19.378;2023-09-19T01:36:52;98381.16;;;20.99;69.63
58785;BME280;44557;51.862;19.378;2023-09-19T01:38:54;98377.82;;;20.95;69.86
58785;BME280;44557;51.862;19.378;2023-09-19T01:41:07;98375.63;;;20.87;69.99
58785;BME280;44557;51.862;19.378;2023-09-19T01:43:20;98375.20;;;20.79;70.21
58785;BME280;44557;51.862;19.378;2023-09-19T01:47:54;98372.36;;;20.84;70.32
58785;BME280;44557;51.862;19.378;2023-09-19T01:50:33;98371.54;;;20.82;70.18
58785;BME280;44557;51.862;19.378;2023-09-19T01:52:54;98370.41;;;20.56;71.45
58785;BME280;44557;51.862;19.378;2023-09-19T01:55:05;98371.22;;;20.62;71.44
58785;BME280;44557;51.862;19.378;2023-09-19T01:57:17;98374.79;;;20.70;71.09
58785;BME280;44557;51.862;19.378;2023-09-19T01:59:25;98371.58;;;20.70;70.74
58785;BME280;44557;51.862;19.378;2023-09-19T02:01:31;98373.14;;;20.59;71.33
58785;BME280;44557;51.862;19.378;2023-09-19T02:03:34;98374.55;;;20.73;70.72
58785;BME280;44557;51.862;19.378;2023-09-19T02:05:38;98368.16;;;20.69;70.87
58785;BME280;44557;51.862;19.378;2023-09-19T02:07:41;98365.59;;;20.77;70.63
58785;BME280;44557;51.862;19.378;2023-09-19T02:09:45;98362.09;;;20.76;70.54
58785;BME280;44557;51.862;19.378;2023-09-19T02:11:49;98358.45;;;20.65;70.83
58785;BME280;44557;51.862;19.378;2023-09-19T02:13:52;98360.16;;;20.54;71.56
58785;BME280;44557;51.862;19.378;2023-09-19T02:15:56;98358.61;;;20.55;71.39
58785;BME280;44557;51.862;19.378;2023-09-19T02:17:57;98359.84;;;20.64;70.99
58785;BME280;44557;51.862;19.378;2023-09-19T02:20:01;98358.39;;;20.64;70.92
58785;BME280;44557;51.862;19.378;2023-09-19T02:22:03;98359.31;;;20.59;71.20
58785;BME280;44557;51.862;19.378;2023-09-19T02:24:10;98361.47;;;20.49;71.79
58785;BME280;44557;51.862;19.378;2023-09-19T02:26:11;98359.73;;;20.65;71.00
58785;BME280;44557;51.862;19.378;2023-09-19T02:28:14;98352.27;;;20.68;70.79
58785;BME280;44557;51.862;19.378;2023-09-19T02:30:16;98348.73;;;20.60;71.19
58785;BME280;44557;51.862;19.378;2023-09-19T02:32:19;98349.23;;;20.50;71.53
58785;BME280;44557;51.862;19.378;2023-09-19T02:34:22;98350.11;;;20.39;71.91
58785;BME280;44557;51.862;19.378;2023-09-19T02:36:24;98348.53;;;20.38;72.18
58785;BME280;44557;51.862;19.378;2023-09-19T02:38:26;98350.86;;;20.35;72.27
58785;BME280;44557;51.862;19.378;2023-09-19T02:40:28;98349.34;;;20.32;72.22
58785;BME280;44557;51.862;19.378;2023-09-19T02:42:30;98348.20;;;20.04;73.19
58785;BME280;44557;51.862;19.378;2023-09-19T02:44:31;98342.39;;;20.03;73.61
58785;BME280;44557;51.862;19.378;2023-09-19T02:46:34;98340.56;;;19.99;73.67
58785;BME280;44557;51.862;19.378;2023-09-19T02:48:39;98335.95;;;20.05;73.64
58785;BME280;44557;51.862;19.378;2023-09-19T02:50:42;98333.23;;;20.02;73.46
58785;BME280;44557;51.862;19.378;2023-09-19T02:52:46;98334.14;;;19.97;73.81
58785;BME280;44557;51.862;19.378;2023-09-19T02:54:52;98335.23;;;20.12;73.34
58785;BME280;44557;51.862;19.378;2023-09-19T02:56:55;98334.70;;;20.15;73.06
58785;BME280;44557;51.862;19.378;2023-09-19T02:58:58;98342.41;;;20.02;73.57
58785;BME280;44557;51.862;19.378;2023-09-19T03:01:12;98339.16;;;20.05;73.63
58785;BME280;44557;51.862;19.378;2023-09-19T03:03:15;98338.28;;;20.01;73.38
58785;BME280;44557;51.862;19.378;2023-09-19T03:05:21;98333.44;;;19.82;74.12
58785;BME280;44557;51.862;19.378;2023-09-19T03:07:24;98337.67;;;19.72;74.61
58785;BME280;44557;51.862;19.378;2023-09-19T03:09:26;98332.48;;;19.86;74.22
58785;BME280;44557;51.862;19.378;2023-09-19T03:11:28;98333.99;;;19.79;74.63
58785;BME280;44557;51.862;19.378;2023-09-19T03:13:30;98328.96;;;19.75;74.69
58785;BME280;44557;51.862;19.378;2023-09-19T03:15:33;98327.45;;;19.67;75.26
58785;BME280;44557;51.862;19.378;2023-09-19T03:17:36;98328.95;;;19.61;75.60
58785;BME280;44557;51.862;19.378;2023-09-19T03:19:38;98324.59;;;19.74;75.20
58785;BME280;44557;51.862;19.378;2023-09-19T03:21:41;98322.42;;;19.60;75.51
58785;BME280;44557;51.862;19.378;2023-09-19T03:23:43;98317.21;;;19.60;75.79
58785;BME280;44557;51.862;19.378;2023-09-19T03:25:48;98318.40;;;19.53;76.12
58785;BME280;44557;51.862;19.378;2023-09-19T03:27:50;98316.42;;;19.64;75.59
58785;BME280;44557;51.862;19.378;2023-09-19T03:29:53;98313.77;;;19.62;75.65
58785;BME280;44557;51.862;19.378;2023-09-19T03:31:56;98313.51;;;19.55;75.79
58785;BME280;44557;51.862;19.378;2023-09-19T03:33:58;98314.50;;;19.50;76.11
58785;BME280;44557;51.862;19.378;2023-09-19T03:36:01;98311.08;;;19.57;75.78
58785;BME280;44557;51.862;19.378;2023-09-19T03:38:08;98308.80;;;19.74;75.09
58785;BME280;44557;51.862;19.378;2023-09-19T03:40:10;98309.86;;;19.69;75.04
58785;BME280;44557;51.862;19.378;2023-09-19T03:42:13;98312.16;;;19.65;75.33
58785;BME280;44557;51.862;19.378;2023-09-19T03:44:15;98313.17;;;19.70;74.93
58785;BME280;44557;51.862;19.378;2023-09-19T03:46:17;98311.43;;;19.70;75.00
58785;BME280;44557;51.862;19.378;2023-09-19T03:48:19;98310.14;;;19.74;74.92
58785;BME280;44557;51.862;19.378;2023-09-19T03:50:21;98311.52;;;19.58;75.56
58785;BME280;44557;51.862;19.378;2023-09-19T03:52:23;98309.92;;;19.69;75.10
58785;BME280;44557;51.862;19.378;2023-09-19T03:54:27;98311.34;;;19.55;75.66
58785;BME280;44557;51.862;19.378;2023-09-19T03:56:29;98316.38;;;19.56;75.66
58785;BME280;44557;51.862;19.378;2023-09-19T03:58:32;98316.55;;;19.54;75.69
58785;BME280;44557;51.862;19.378;2023-09-19T04:00:36;98315.73;;;19.55;75.68
58785;BME280;44557;51.862;19.378;2023-09-19T04:02:39;98316.92;;;19.48;75.96
58785;BME280;44557;51.862;19.378;2023-09-19T04:04:41;98318.13;;;19.59;75.54
58785;BME280;44557;51.862;19.378;2023-09-19T04:06:44;98317.64;;;19.60;75.49
58785;BME280;44557;51.862;19.378;2023-09-19T04:08:47;98314.67;;;19.56;75.60
58785;BME280;44557;51.862;19.378;2023-09-19T04:10:50;98315.44;;;19.54;75.82
58785;BME280;44557;51.862;19.378;2023-09-19T04:12:54;98315.09;;;19.48;76.07
58785;BME280;44557;51.862;19.378;2023-09-19T04:14:56;98310.62;;;19.48;76.17
58785;BME280;44557;51.862;19.378;2023-09-19T04:16:58;98317.50;;;19.55;75.82
58785;BME280;44557;51.862;19.378;2023-09-19T04:19:02;98317.38;;;19.53;75.90
58785;BME280;44557;51.862;19.378;2023-09-19T04:21:05;98320.91;;;19.48;76.12
58785;BME280;44557;51.862;19.378;2023-09-19T04:23:07;98321.54;;;19.49;76.13
58785;BME280;44557;51.862;19.378;2023-09-19T04:25:10;98326.13;;;19.66;75.43
58785;BME280;44557;51.862;19.378;2023-09-19T04:27:12;98331.45;;;19.59;75.78
58785;BME280;44557;51.862;19.378;2023-09-19T04:29:16;98331.75;;;19.53;76.29
58785;BME280;44557;51.862;19.378;2023-09-19T04:31:21;98334.27;;;19.66;75.65
58785;BME280;44557;51.862;19.378;2023-09-19T04:33:25;98331.20;;;19.64;75.81
58785;BME280;44557;51.862;19.378;2023-09-19T04:35:28;98334.62;;;19.65;75.90
58785;BME280;44557;51.862;19.378;2023-09-19T04:37:33;98334.67;;;19.70;75.82
58785;BME280;44557;51.862;19.378;2023-09-19T04:39:36;98336.19;;;19.74;75.95
58785;BME280;44557;51.862;19.378;2023-09-19T04:41:38;98336.30;;;19.76;75.84
58785;BME280;44557;51.862;19.378;2023-09-19T04:43:43;98339.20;;;19.86;75.41
58785;BME280;44557;51.862;19.378;2023-09-19T04:45:45;98338.10;;;19.78;75.69
58785;BME280;44557;51.862;19.378;2023-09-19T04:47:48;98342.52;;;19.80;75.54
58785;BME280;44557;51.862;19.378;2023-09-19T04:49:50;98346.02;;;19.80;75.67
58785;BME280;44557;51.862;19.378;2023-09-19T04:51:52;98347.48;;;19.72;76.07
58785;BME280;44557;51.862;19.378;2023-09-19T04:53:55;98344.90;;;19.54;76.85
58785;BME280;44557;51.862;19.378;2023-09-19T04:55:57;98350.17;;;19.61;76.52
58785;BME280;44557;51.862;19.378;2023-09-19T04:57:59;98345.95;;;19.72;76.20
58785;BME280;44557;51.862;19.378;2023-09-19T05:00:03;98344.34;;;19.50;77.18
58785;BME280;44557;51.862;19.378;2023-09-19T05:02:14;98348.80;;;19.65;76.82
58785;BME280;44557;51.862;19.378;2023-09-19T05:04:15;98350.73;;;19.77;76.48
58785;BME280;44557;51.862;19.378;2023-09-19T05:06:21;98352.76;;;19.64;77.07
58785;BME280;44557;51.862;19.378;2023-09-19T05:08:24;98352.65;;;19.69;77.17
58785;BME280;44557;51.862;19.378;2023-09-19T05:10:27;98359.30;;;19.75;76.98
58785;BME280;44557;51.862;19.378;2023-09-19T05:12:29;98363.96;;;19.70;78.25
58785;BME280;44557;51.862;19.378;2023-09-19T05:14:32;98366.14;;;19.58;80.20
58785;BME280;44557;51.862;19.378;2023-09-19T05:16:34;98373.48;;;19.53;81.41
58785;BME280;44557;51.862;19.378;2023-09-19T05:18:36;98370.42;;;19.55;82.56
58785;BME280;44557;51.862;19.378;2023-09-19T05:20:38;98372.06;;;19.48;83.77
58785;BME280;44557;51.862;19.378;2023-09-19T05:22:42;98369.10;;;19.45;85.93
58785;BME280;44557;51.862;19.378;2023-09-19T05:24:46;98366.38;;;19.20;88.35
58785;BME280;44557;51.862;19.378;2023-09-19T05:26:50;98365.34;;;18.99;91.74
58785;BME280;44557;51.862;19.378;2023-09-19T05:28:51;98362.21;;;19.08;93.22
58785;BME280;44557;51.862;19.378;2023-09-19T05:30:55;98359.71;;;19.14;93.47
58785;BME280;44557;51.862;19.378;2023-09-19T05:32:57;98368.42;;;19.09;93.31
58785;BME280;44557;51.862;19.378;2023-09-19T05:35:00;98379.79;;;19.12;94.35
58785;BME280;44557;51.862;19.378;2023-09-19T05:37:03;98384.86;;;19.00;95.00
58785;BME280;44557;51.862;19.378;2023-09-19T05:39:07;98391.36;;;18.93;95.54
58785;BME280;44557;51.862;19.378;2023-09-19T05:41:11;98392.83;;;19.01;96.08
58785;BME280;44557;51.862;19.378;2023-09-19T05:43:15;98388.39;;;18.98;96.49
58785;BME280;44557;51.862;19.378;2023-09-19T05:45:17;98384.40;;;19.03;95.13
58785;BME280;44557;51.862;19.378;2023-09-19T05:47:26;98371.84;;;19.14;94.92
58785;BME280;44557;51.862;19.378;2023-09-19T05:49:30;98366.77;;;19.20;95.57
58785;BME280;44557;51.862;19.378;2023-09-19T05:51:33;98350.97;;;19.25;94.62
58785;BME280;44557;51.862;19.378;2023-09-19T05:53:35;98345.83;;;19.35;93.49
58785;BME280;44557;51.862;19.378;2023-09-19T05:55:37;98351.30;;;19.29;94.60
58785;BME280;44557;51.862;19.378;2023-09-19T05:57:40;98360.94;;;19.21;94.04
58785;BME280;44557;51.862;19.378;2023-09-19T05:59:45;98373.89;;;19.11;95.26
58785;BME280;44557;51.862;19.378;2023-09-19T06:01:46;98379.87;;;18.98;96.43
58785;BME280;44557;51.862;19.378;2023-09-19T06:03:48;98385.59;;;18.91;98.14
58785;BME280;44557;51.862;19.378;2023-09-19T06:05:50;98391.20;;;18.89;97.74
58785;BME280;44557;51.862;19.378;2023-09-19T06:07:54;98387.08;;;18.82;98.12
58785;BME280;44557;51.862;19.378;2023-09-19T06:09:56;98391.75;;;18.80;97.91
58785;BME280;44557;51.862;19.378;2023-09-19T06:11:58;98393.25;;;18.80;98.53
58785;BME280;44557;51.862;19.378;2023-09-19T06:14:05;98395.98;;;18.80;99.44
58785;BME280;44557;51.862;19.378;2023-09-19T06:16:06;98394.23;;;18.65;99.83
58785;BME280;44557;51.862;19.378;2023-09-19T06:18:10;98396.82;;;18.67;100.00
58785;BME280;44557;51.862;19.378;2023-09-19T06:20:15;98396.04;;;18.66;100.00
58785;BME280;44557;51.862;19.378;2023-09-19T06:22:19;98399.27;;;18.73;99.85
58785;BME280;44557;51.862;19.378;2023-09-19T06:24:21;98400.78;;;18.74;99.97
58785;BME280;44557;51.862;19.378;2023-09-19T06:26:23;98399.64;;;18.65;100.00
58785;BME280;44557;51.862;19.378;2023-09-19T06:28:29;98395.36;;;18.73;100.00
58785;BME280;44557;51.862;19.378;2023-09-19T06:30:31;98392.54;;;18.71;100.00
58785;BME280;44557;51.862;19.378;2023-09-19T06:32:34;98384.03;;;18.74;100.00
58785;BME280;44557;51.862;19.378;2023-09-19T06:34:36;98374.11;;;18.81;100.00
58785;BME280;44557;51.862;19.378;2023-09-19T06:36:39;98376.45;;;18.84;100.00
58785;BME280;44557;51.862;19.378;2023-09-19T06:38:43;98382.47;;;18.96;99.94
58785;BME280;44557;51.862;19.378;2023-09-19T06:40:46;98397.11;;;18.93;100.00
58785;BME280;44557;51.862;19.378;2023-09-19T06:42:52;98394.95;;;19.02;100.00
58785;BME280;44557;51.862;19.378;2023-09-19T06:44:55;98395.94;;;19.05;99.96
58785;BME280;44557;51.862;19.378;2023-09-19T06:46:58;98401.29;;;18.96;100.00
58785;BME280;44557;51.862;19.378;2023-09-19T06:49:00;98405.55;;;18.93;100.00
58785;BME280;44557;51.862;19.378;2023-09-19T06:51:03;98404.36;;;18.98;100.00
58785;BME280;44557;51.862;19.378;2023-09-19T06:53:06;98411.45;;;18.98;100.00
58785;BME280;44557;51.862;19.378;2023-09-19T06:55:08;98416.52;;;19.01;100.00
58785;BME280;44557;51.862;19.378;2023-09-19T06:57:15;98426.39;;;19.06;100.00
58785;BME280;44557;51.862;19.378;2023-09-19T06:59:17;98431.38;;;18.90;100.00
58785;BME280;44557;51.862;19.378;2023-09-19T07:01:20;98433.29;;;18.85;100.00
58785;BME280;44557;51.862;19.378;2023-09-19T07:03:22;98435.98;;;18.86;100.00
58785;BME280;44557;51.862;19.378;2023-09-19T07:05:28;98440.28;;;19.05;100.00
58785;BME280;44557;51.862;19.378;2023-09-19T07:07:31;98446.19;;;18.85;100.00
58785;BME280;44557;51.862;19.378;2023-09-19T07:09:36;98448.11;;;18.95;100.00
58785;BME280;44557;51.862;19.378;2023-09-19T07:11:38;98451.24;;;18.98;100.00
58785;BME280;44557;51.862;19.378;2023-09-19T07:13:41;98454.73;;;18.99;100.00
58785;BME280;44557;51.862;19.378;2023-09-19T07:15:44;98460.45;;;18.87;100.00
58785;BME280;44557;51.862;19.378;2023-09-19T07:17:49;98465.89;;;18.86;100.00
58785;BME280;44557;51.862;19.378;2023-09-19T07:19:51;98467.09;;;18.90;100.00
58785;BME280;44557;51.862;19.378;2023-09-19T07:21:54;98470.80;;;18.83;100.00
58785;BME280;44557;51.862;19.378;2023-09-19T07:23:56;98474.02;;;18.86;100.00
58785;BME280;44557;51.862;19.378;2023-09-19T07:25:58;98477.27;;;18.87;100.00
58785;BME280;44557;51.862;19.378;2023-09-19T07:28:00;98480.73;;;19.00;100.00
58785;BME280;44557;51.862;19.378;2023-09-19T07:30:03;98483.95;;;18.98;100.00
58785;BME280;44557;51.862;19.378;2023-09-19T07:32:10;98484.45;;;18.92;100.00
58785;BME280;44557;51.862;19.378;2023-09-19T07:34:14;98485.03;;;19.05;100.00
58785;BME280;44557;51.862;19.378;2023-09-19T07:36:17;98489.02;;;18.96;100.00
58785;BME280;44557;51.862;19.378;2023-09-19T07:38:19;98494.14;;;18.99;100.00
58785;BME280;44557;51.862;19.378;2023-09-19T07:40:24;98493.31;;;19.06;100.00
58785;BME280;44557;51.862;19.378;2023-09-19T07:42:31;98494.13;;;19.15;100.00
58785;BME280;44557;51.862;19.378;2023-09-19T07:44:35;98497.15;;;19.15;100.00
58785;BME280;44557;51.862;19.378;2023-09-19T07:46:40;98499.25;;;19.14;100.00
58785;BME280;44557;51.862;19.378;2023-09-19T07:48:42;98503.66;;;19.22;100.00
58785;BME280;44557;51.862;19.378;2023-09-19T07:50:52;98506.14;;;19.21;100.00
58785;BME280;44557;51.862;19.378;2023-09-19T07:52:54;98505.44;;;19.25;100.00
58785;BME280;44557;51.862;19.378;2023-09-19T07:54:58;98505.28;;;19.15;100.00
58785;BME280;44557;51.862;19.378;2023-09-19T07:57:04;98507.69;;;19.10;100.00
58785;BME280;44557;51.862;19.378;2023-09-19T07:59:06;98505.88;;;19.13;100.00
58785;BME280;44557;51.862;19.378;2023-09-19T08:01:10;98509.94;;;19.27;100.00
58785;BME280;44557;51.862;19.378;2023-09-19T08:03:18;98510.46;;;19.16;100.00
58785;BME280;44557;51.862;19.378;2023-09-19T08:05:21;98506.73;;;19.10;100.00
58785;BME280;44557;51.862;19.378;2023-09-19T08:07:24;98511.37;;;19.18;100.00
58785;BME280;44557;51.862;19.378;2023-09-19T08:09:26;98505.92;;;19.20;100.00
58785;BME280;44557;51.862;19.378;2023-09-19T08:11:31;98510.45;;;19.21;100.00
58785;BME280;44557;51.862;19.378;2023-09-19T08:13:33;98514.52;;;19.32;100.00
58785;BME280;44557;51.862;19.378;2023-09-19T08:15:35;98513.81;;;19.40;100.00
58785;BME280;44557;51.862;19.378;2023-09-19T08:17:37;98512.27;;;19.59;100.00
58785;BME280;44557;51.862;19.378;2023-09-19T08:19:40;98516.16;;;19.57;100.00
58785;BME280;44557;51.862;19.378;2023-09-19T08:21:43;98512.41;;;19.65;100.00
58785;BME280;44557;51.862;19.378;2023-09-19T08:23:52;98514.04;;;19.50;100.00
58785;BME280;44557;51.862;19.378;2023-09-19T08:25:58;98517.78;;;19.55;100.00
58785;BME280;44557;51.862;19.378;2023-09-19T08:28:05;98518.42;;;19.63;100.00
58785;BME280;44557;51.862;19.378;2023-09-19T08:30:11;98515.50;;;19.67;100.00
58785;BME280;44557;51.862;19.378;2023-09-19T08:32:13;98509.91;;;19.71;100.00
58785;BME280;44557;51.862;19.378;2023-09-19T08:34:17;98510.86;;;19.75;100.00
58785;BME280;44557;51.862;19.378;2023-09-19T08:36:20;98512.23;;;20.02;100.00
58785;BME280;44557;51.862;19.378;2023-09-19T08:38:25;98504.58;;;20.19;100.00
58785;BME280;44557;51.862;19.378;2023-09-19T08:40:48;98502.86;;;20.21;100.00
58785;BME280;44557;51.862;19.378;2023-09-19T08:42:53;98497.80;;;20.33;99.76
58785;BME280;44557;51.862;19.378;2023-09-19T08:44:57;98499.59;;;20.43;99.38
58785;BME280;44557;51.862;19.378;2023-09-19T08:47:10;98505.02;;;20.44;98.22
58785;BME280;44557;51.862;19.378;2023-09-19T08:51:41;98505.45;;;20.18;98.76
58785;BME280;44557;51.862;19.378;2023-09-19T08:53:57;98499.75;;;20.28;97.90
58785;BME280;44557;51.862;19.378;2023-09-19T08:56:01;98498.27;;;20.38;97.51
58785;BME280;44557;51.862;19.378;2023-09-19T08:58:10;98500.76;;;20.29;97.68
58785;BME280;44557;51.862;19.378;2023-09-19T09:00:13;98503.66;;;20.16;98.78
58785;BME280;44557;51.862;19.378;2023-09-19T09:02:20;98498.45;;;20.18;98.45
58785;BME280;44557;51.862;19.378;2023-09-19T09:04:23;98500.23;;;20.28;97.72
58785;BME280;44557;51.862;19.378;2023-09-19T09:06:26;98502.85;;;20.25;98.13
58785;BME280;44557;51.862;19.378;2023-09-19T09:08:31;98501.52;;;20.19;98.57
58785;BME280;44557;51.862;19.378;2023-09-19T09:10:34;98495.30;;;20.18;99.27
58785;BME280;44557;51.862;19.378;2023-09-19T09:12:37;98493.27;;;20.25;98.93
58785;BME280;44557;51.862;19.378;2023-09-19T09:14:45;98488.54;;;20.33;98.83
58785;BME280;44557;51.862;19.378;2023-09-19T09:16:51;98493.44;;;20.24;98.08
58785;BME280;44557;51.862;19.378;2023-09-19T09:18:59;98489.27;;;20.25;97.69
58785;BME280;44557;51.862;19.378;2023-09-19T09:21:01;98488.61;;;20.44;96.38
58785;BME280;44557;51.862;19.378;2023-09-19T09:23:05;98491.31;;;20.53;96.20
58785;BME280;44557;51.862;19.378;2023-09-19T09:25:08;98492.06;;;20.43;96.98
58785;BME280;44557;51.862;19.378;2023-09-19T09:27:12;98499.02;;;20.65;96.31
58785;BME280;44557;51.862;19.378;2023-09-19T09:29:15;98500.50;;;20.56;96.46
58785;BME280;44557;51.862;19.378;2023-09-19T09:31:25;98504.95;;;20.58;95.13
58785;BME280;44557;51.862;19.378;2023-09-19T09:33:26;98509.73;;;20.58;94.96
58785;BME280;44557;51.862;19.378;2023-09-19T09:35:30;98509.52;;;20.71;95.06
58785;BME280;44557;51.862;19.378;2023-09-19T09:37:33;98514.85;;;20.58;95.65
58785;BME280;44557;51.862;19.378;2023-09-19T09:39:37;98515.35;;;20.50;95.49
58785;BME280;44557;51.862;19.378;2023-09-19T09:41:39;98516.30;;;20.58;93.98
58785;BME280;44557;51.862;19.378;2023-09-19T09:43:42;98515.89;;;20.65;95.00
58785;BME280;44557;51.862;19.378;2023-09-19T09:46:16;98516.49;;;20.70;95.24
58785;BME280;44557;51.862;19.378;2023-09-19T09:48:45;98518.22;;;20.55;94.53
58785;BME280;44557;51.862;19.378;2023-09-19T09:50:55;98517.91;;;20.61;94.95
58785;BME280;44557;51.862;19.378;2023-09-19T09:52:59;98520.23;;;20.75;93.64
58785;BME280;44557;51.862;19.378;2023-09-19T09:55:09;98522.31;;;20.71;93.34
58785;BME280;44557;51.862;19.378;2023-09-19T09:57:12;98525.41;;;20.66;94.52
58785;BME280;44557;51.862;19.378;2023-09-19T09:59:22;98526.58;;;20.84;94.05
58785;BME280;44557;51.862;19.378;2023-09-19T10:01:27;98530.10;;;20.88;92.48
58785;BME280;44557;51.862;19.378;2023-09-19T10:03:38;98528.40;;;21.03;92.44
58785;BME280;44557;51.862;19.378;2023-09-19T10:05:53;98538.41;;;21.02;92.32
58785;BME280;44557;51.862;19.378;2023-09-19T10:08:10;98543.33;;;20.83;92.22
58785;BME280;44557;51.862;19.378;2023-09-19T10:10:14;98545.29;;;21.06;91.62
58785;BME280;44557;51.862;19.378;2023-09-19T10:12:27;98549.27;;;21.11;91.20
58785;BME280;44557;51.862;19.378;2023-09-19T10:14:33;98552.10;;;21.02;90.42
58785;BME280;44557;51.862;19.378;2023-09-19T10:16:40;98553.27;;;20.81;91.51
58785;BME280;44557;51.862;19.378;2023-09-19T10:18:43;98561.37;;;20.81;91.05
58785;BME280;44557;51.862;19.378;2023-09-19T10:20:47;98566.50;;;20.87;91.01
58785;BME280;44557;51.862;19.378;2023-09-19T10:22:52;98570.46;;;20.92;90.66
58785;BME280;44557;51.862;19.378;2023-09-19T10:25:00;98568.09;;;20.88;91.26
58785;BME280;44557;51.862;19.378;2023-09-19T10:27:04;98568.68;;;20.69;92.08
58785;BME280;44557;51.862;19.378;2023-09-19T10:29:13;98571.21;;;20.66;92.42
58785;BME280;44557;51.862;19.378;2023-09-19T10:31:19;98571.69;;;20.74;92.07
58785;BME280;44557;51.862;19.378;2023-09-19T10:33:24;98575.38;;;20.69;92.64
58785;BME280;44557;51.862;19.378;2023-09-19T10:35:32;98583.17;;;20.64;93.06
58785;BME280;44557;51.862;19.378;2023-09-19T10:37:37;98582.52;;;20.68;93.13
58785;BME280;44557;51.862;19.378;2023-09-19T10:39:39;98584.04;;;20.61;93.96
58785;BME280;44557;51.862;19.378;2023-09-19T10:41:43;98590.44;;;20.64;94.19
58785;BME280;44557;51.862;19.378;2023-09-19T10:43:51;98587.46;;;20.73;94.16
58785;BME280;44557;51.862;19.378;2023-09-19T10:46:01;98586.30;;;20.92;93.15
58785;BME280;44557;51.862;19.378;2023-09-19T10:48:06;98585.92;;;20.81;92.14
58785;BME280;44557;51.862;19.378;2023-09-19T10:50:19;98593.84;;;20.84;91.81
58785;BME280;44557;51.862;19.378;2023-09-19T10:52:25;98596.54;;;20.89;91.47
58785;BME280;44557;51.862;19.378;2023-09-19T10:54:32;98597.14;;;20.84;92.10
58785;BME280;44557;51.862;19.378;2023-09-19T10:56:42;98598.52;;;20.68;92.05
58785;BME280;44557;51.862;19.378;2023-09-19T10:58:47;98601.52;;;20.59;92.54
58785;BME280;44557;51.862;19.378;2023-09-19T11:00:57;98609.99;;;20.62;92.51
58785;BME280;44557;51.862;19.378;2023-09-19T11:05:22;98608.52;;;20.49;92.49